sensor_id;sensor_type;location;lat;lon;timestamp;pressure;altitude;pressure_sealevel;temperature;humidity
43553;BME280;29153;42.696;23.218;2023-05-08T00:00:49;94617.21;;;8.79;100.00
43553;BME280;29153;42.696;23.218;2023-05-08T00:03:16;94623.77;;;8.68;100.00
43553;BME280;29153;42.696;23.218;2023-05-08T00:05:44;94627.75;;;8.74;100.00
43553;BME280;29153;42.696;23.218;2023-05-08T00:08:11;94628.83;;;8.75;100.00
43553;BME280;29153;42.696;23.218;2023-05-08T00:10:39;94622.23;;;8.73;100.00
43553;BME280;29153;42.696;23.218;2023-05-08T00:13:06;94623.25;;;8.69;100.00
43553;BME280;29153;42.696;23.218;2023-05-08T00:15:35;94621.92;;;8.66;100.00
43553;BME280;29153;42.696;23.218;2023-05-08T00:18:03;94629.30;;;8.64;100.00
43553;BME280;29153;42.696;23.218;2023-05-08T00:20:31;94627.46;;;8.60;100.00
43553;BME280;29153;42.696;23.218;2023-05-08T00:22:59;94637.74;;;8.61;100.00
43553;BME280;29153;42.696;23.218;2023-05-08T00:25:27;94641.70;;;8.61;100.00
43553;BME280;29153;42.696;23.218;2023-05-08T00:27:56;94632.71;;;8.57;100.00
43553;BME280;29153;42.696;23.218;2023-05-08T00:30:24;94640.91;;;8.58;100.00
43553;BME280;29153;42.696;23.218;2023-05-08T00:32:52;94642.20;;;8.56;100.00
43553;BME280;29153;42.696;23.218;2023-05-08T00:35:20;94640.11;;;8.58;100.00
43553;BME280;29153;42.696;23.218;2023-05-08T00:37:47;94635.11;;;8.59;100.00
43553;BME280;29153;42.696;23.218;2023-05-08T00:40:15;94634.22;;;8.41;100.00
43553;BME280;29153;42.696;23.218;2023-05-08T00:42:43;94635.55;;;8.43;100.00
43553;BME280;29153;42.696;23.218;2023-05-08T00:45:10;94638.48;;;8.47;100.00
43553;BME280;29153;42.696;23.218;2023-05-08T00:47:38;94641.38;;;8.45;100.00
43553;BME280;29153;42.696;23.218;2023-05-08T00:50:06;94640.83;;;8.41;100.00
43553;BME280;29153;42.696;23.218;2023-05-08T00:52:34;94632.38;;;8.44;100.00
43553;BME280;29153;42.696;23.218;2023-05-08T00:55:04;94638.70;;;8.38;100.00
43553;BME280;29153;42.696;23.218;2023-05-08T00:57:32;94643.16;;;8.35;100.00
43553;BME280;29153;42.696;23.218;2023-05-08T01:00:02;94644.75;;;8.36;100.00
43553;BME280;29153;42.696;23.218;2023-05-08T01:02:31;94646.10;;;8.38;100.00
43553;BME280;29153;42.696;23.218;2023-05-08T01:04:59;94646.06;;;8.33;100.00
43553;BME280;29153;42.696;23.218;2023-05-08T01:07:27;94643.89;;;8.28;100.00
43553;BME280;29153;42.696;23.218;2023-05-08T01:09:55;94644.69;;;8.26;100.00
43553;BME280;29153;42.696;23.218;2023-05-08T01:15:32;94658.92;;;8.24;100.00
43553;BME280;29153;42.696;23.218;2023-05-08T01:20:55;94652.02;;;8.18;100.00
43553;BME280;29153;42.696;23.218;2023-05-08T01:26:01;94655.17;;;8.15;100.00
43553;BME280;29153;42.696;23.218;2023-05-08T01:34:05;94652.02;;;8.18;100.00
43553;BME280;29153;42.696;23.218;2023-05-08T01:39:19;94644.38;;;8.17;100.00
43553;BME280;29153;42.696;23.218;2023-05-08T01:42:01;94647.46;;;8.09;100.00
43553;BME280;29153;42.696;23.218;2023-05-08T01:44:27;94639.02;;;8.04;100.00
43553;BME280;29153;42.696;23.218;2023-05-08T01:46:53;94639.50;;;8.01;100.00
43553;BME280;29153;42.696;23.218;2023-05-08T01:49:31;94641.62;;;7.99;100.00
43553;BME280;29153;42.696;23.218;2023-05-08T01:52:00;94643.73;;;8.00;100.00
43553;BME280;29153;42.696;23.218;2023-05-08T01:54:32;94638.42;;;7.95;100.00
43553;BME280;29153;42.696;23.218;2023-05-08T01:56:59;94639.50;;;7.99;100.00
43553;BME280;29153;42.696;23.218;2023-05-08T01:59:28;94641.09;;;8.00;100.00
43553;BME280;29153;42.696;23.218;2023-05-08T02:01:58;94640.82;;;7.99;100.00
43553;BME280;29153;42.696;23.218;2023-05-08T02:04:27;94638.47;;;8.05;100.00
43553;BME280;29153;42.696;23.218;2023-05-08T02:06:56;94633.95;;;8.00;100.00
43553;BME280;29153;42.696;23.218;2023-05-08T02:09:26;94641.38;;;8.03;100.00
43553;BME280;29153;42.696;23.218;2023-05-08T02:11:55;94648.50;;;8.05;100.00
43553;BME280;29153;42.696;23.218;2023-05-08T02:14:24;94639.54;;;8.06;100.00
43553;BME280;29153;42.696;23.218;2023-05-08T02:16:54;94647.69;;;8.02;100.00
43553;BME280;29153;42.696;23.218;2023-05-08T02:19:24;94649.56;;;8.04;100.00
43553;BME280;29153;42.696;23.218;2023-05-08T02:21:54;94647.94;;;7.98;100.00
43553;BME280;29153;42.696;23.218;2023-05-08T02:24:24;94645.58;;;7.99;100.00
43553;BME280;29153;42.696;23.218;2023-05-08T02:26:53;94651.37;;;8.01;100.00
43553;BME280;29153;42.696;23.218;2023-05-08T02:29:23;94646.89;;;8.02;100.00
43553;BME280;29153;42.696;23.218;2023-05-08T02:31:52;94647.12;;;7.95;100.00
43553;BME280;29153;42.696;23.218;2023-05-08T02:34:22;94639.46;;;7.94;100.00
43553;BME280;29153;42.696;23.218;2023-05-08T02:36:51;94647.69;;;8.00;100.00
43553;BME280;29153;42.696;23.218;2023-05-08T02:39:21;94648.94;;;7.92;100.00
43553;BME280;29153;42.696;23.218;2023-05-08T02:41:50;94654.48;;;7.93;100.00
43553;BME280;29153;42.696;23.218;2023-05-08T02:44:18;94657.41;;;7.94;100.00
43553;BME280;29153;42.696;23.218;2023-05-08T02:46:57;94658.72;;;7.94;100.00
43553;BME280;29153;42.696;23.218;2023-05-08T02:49:31;94654.20;;;7.92;100.00
43553;BME280;29153;42.696;23.218;2023-05-08T02:52:21;94655.60;;;8.00;100.00
43553;BME280;29153;42.696;23.218;2023-05-08T02:54:59;94650.02;;;7.96;100.00
43553;BME280;29153;42.696;23.218;2023-05-08T02:59:59;94651.05;;;7.93;100.00
43553;BME280;29153;42.696;23.218;2023-05-08T03:05:07;94653.45;;;7.94;100.00
43553;BME280;29153;42.696;23.218;2023-05-08T03:07:32;94649.53;;;8.02;100.00
43553;BME280;29153;42.696;23.218;2023-05-08T03:10:04;94651.17;;;8.08;100.00
43553;BME280;29153;42.696;23.218;2023-05-08T03:12:35;94598.22;;;7.77;100.00
43553;BME280;29153;42.696;23.218;2023-05-08T03:15:13;94649.33;;;8.08;100.00
43553;BME280;29153;42.696;23.218;2023-05-08T03:17:41;94645.62;;;8.07;100.00
43553;BME280;29153;42.696;23.218;2023-05-08T03:20:11;94653.30;;;8.13;100.00
43553;BME280;29153;42.696;23.218;2023-05-08T03:22:40;94657.01;;;8.15;100.00
43553;BME280;29153;42.696;23.218;2023-05-08T03:25:10;94658.08;;;8.16;100.00
43553;BME280;29153;42.696;23.218;2023-05-08T03:27:40;94659.33;;;8.09;100.00
43553;BME280;29153;42.696;23.218;2023-05-08T03:30:08;94660.48;;;8.20;100.00
43553;BME280;29153;42.696;23.218;2023-05-08T03:32:37;94658.08;;;8.16;100.00
43553;BME280;29153;42.696;23.218;2023-05-08T03:35:06;94656.52;;;8.20;100.00
43553;BME280;29153;42.696;23.218;2023-05-08T03:37:35;94665.77;;;8.23;100.00
43553;BME280;29153;42.696;23.218;2023-05-08T03:40:04;94664.83;;;8.37;100.00
43553;BME280;29153;42.696;23.218;2023-05-08T03:42:33;94662.70;;;8.39;100.00
43553;BME280;29153;42.696;23.218;2023-05-08T03:45:02;94655.89;;;8.45;100.00
43553;BME280;29153;42.696;23.218;2023-05-08T03:47:29;94658.56;;;8.50;100.00
43553;BME280;29153;42.696;23.218;2023-05-08T03:49:58;94662.28;;;8.54;100.00
43553;BME280;29153;42.696;23.218;2023-05-08T03:52:26;94659.91;;;8.58;100.00
43553;BME280;29153;42.696;23.218;2023-05-08T03:54:55;94662.55;;;8.60;100.00
43553;BME280;29153;42.696;23.218;2023-05-08T03:57:24;94666.55;;;8.63;100.00
43553;BME280;29153;42.696;23.218;2023-05-08T04:00:13;94668.72;;;8.79;100.00
43553;BME280;29153;42.696;23.218;2023-05-08T04:03:04;94666.62;;;8.86;100.00
43553;BME280;29153;42.696;23.218;2023-05-08T04:05:33;94675.41;;;9.01;100.00
43553;BME280;29153;42.696;23.218;2023-05-08T04:08:24;94675.42;;;9.11;100.00
43553;BME280;29153;42.696;23.218;2023-05-08T04:11:05;94679.92;;;9.06;100.00
43553;BME280;29153;42.696;23.218;2023-05-08T04:13:35;94677.57;;;9.25;100.00
43553;BME280;29153;42.696;23.218;2023-05-08T04:16:12;94677.89;;;9.43;100.00
43553;BME280;29153;42.696;23.218;2023-05-08T04:18:37;94687.44;;;9.57;100.00
43553;BME280;29153;42.696;23.218;2023-05-08T04:21:08;94682.94;;;9.65;100.00
43553;BME280;29153;42.696;23.218;2023-05-08T04:23:39;94680.05;;;9.74;100.00
43553;BME280;29153;42.696;23.218;2023-05-08T04:26:08;94677.92;;;9.81;100.00
43553;BME280;29153;42.696;23.218;2023-05-08T04:28:36;94680.04;;;9.94;100.00
43553;BME280;29153;42.696;23.218;2023-05-08T04:31:06;94684.27;;;10.11;100.00
43553;BME280;29153;42.696;23.218;2023-05-08T04:33:34;94686.40;;;10.24;100.00
43553;BME280;29153;42.696;23.218;2023-05-08T04:36:03;94689.83;;;10.32;100.00
43553;BME280;29153;42.696;23.218;2023-05-08T04:38:34;94682.13;;;10.45;100.00
43553;BME280;29153;42.696;23.218;2023-05-08T04:41:00;94686.07;;;10.58;100.00
43553;BME280;29153;42.696;23.218;2023-05-08T04:43:27;94678.08;;;10.71;100.00
43553;BME280;29153;42.696;23.218;2023-05-08T04:45:55;94683.86;;;10.88;100.00
43553;BME280;29153;42.696;23.218;2023-05-08T04:48:22;94680.87;;;11.05;100.00
43553;BME280;29153;42.696;23.218;2023-05-08T04:50:50;94674.45;;;11.21;100.00
43553;BME280;29153;42.696;23.218;2023-05-08T04:53:17;94673.56;;;11.38;100.00
43553;BME280;29153;42.696;23.218;2023-05-08T04:55:45;94677.14;;;11.57;100.00
43553;BME280;29153;42.696;23.218;2023-05-08T04:58:13;94667.57;;;12.00;100.00
43553;BME280;29153;42.696;23.218;2023-05-08T05:00:40;94667.57;;;12.00;100.00
43553;BME280;29153;42.696;23.218;2023-05-08T05:03:08;94665.61;;;12.11;100.00
43553;BME280;29153;42.696;23.218;2023-05-08T05:05:35;94669.33;;;12.12;100.00
43553;BME280;29153;42.696;23.218;2023-05-08T05:08:03;94662.25;;;12.31;100.00
43553;BME280;29153;42.696;23.218;2023-05-08T05:10:30;94665.59;;;12.42;98.97
43553;BME280;29153;42.696;23.218;2023-05-08T05:12:58;94655.80;;;12.40;94.17
43553;BME280;29153;42.696;23.218;2023-05-08T05:15:26;94660.37;;;12.58;91.76
43553;BME280;29153;42.696;23.218;2023-05-08T05:17:53;94657.56;;;12.73;90.05
43553;BME280;29153;42.696;23.218;2023-05-08T05:20:21;94662.62;;;12.96;88.77
43553;BME280;29153;42.696;23.218;2023-05-08T05:22:48;94664.00;;;13.15;87.42
43553;BME280;29153;42.696;23.218;2023-05-08T05:25:16;94660.89;;;13.48;85.53
43553;BME280;29153;42.696;23.218;2023-05-08T05:27:43;94670.56;;;13.79;83.78
43553;BME280;29153;42.696;23.218;2023-05-08T05:30:11;94674.55;;;13.97;82.91
43553;BME280;29153;42.696;23.218;2023-05-08T05:32:39;94668.16;;;14.12;82.53
43553;BME280;29153;42.696;23.218;2023-05-08T05:35:07;94669.20;;;14.30;81.91
43553;BME280;29153;42.696;23.218;2023-05-08T05:37:35;94674.25;;;14.31;78.85
43553;BME280;29153;42.696;23.218;2023-05-08T05:40:03;94667.12;;;14.45;77.54
43553;BME280;29153;42.696;23.218;2023-05-08T05:42:31;94672.08;;;14.66;77.85
43553;BME280;29153;42.696;23.218;2023-05-08T05:44:59;94664.96;;;15.16;76.50
43553;BME280;29153;42.696;23.218;2023-05-08T05:47:27;94664.96;;;15.16;76.50
43553;BME280;29153;42.696;23.218;2023-05-08T05:49:54;94679.19;;;15.49;74.79
43553;BME280;29153;42.696;23.218;2023-05-08T05:52:23;94678.84;;;15.67;74.72
43553;BME280;29153;42.696;23.218;2023-05-08T05:54:50;94673.56;;;15.65;74.12
43553;BME280;29153;42.696;23.218;2023-05-08T05:57:18;94675.27;;;15.72;71.09
43553;BME280;29153;42.696;23.218;2023-05-08T05:59:46;94670.39;;;15.63;72.20
43553;BME280;29153;42.696;23.218;2023-05-08T06:02:14;94680.21;;;15.78;69.15
43553;BME280;29153;42.696;23.218;2023-05-08T06:04:43;94666.28;;;15.79;69.84
43553;BME280;29153;42.696;23.218;2023-05-08T06:07:11;94663.94;;;15.88;70.12
43553;BME280;29153;42.696;23.218;2023-05-08T06:09:38;94663.20;;;15.97;71.12
43553;BME280;29153;42.696;23.218;2023-05-08T06:12:06;94657.75;;;16.02;71.64
43553;BME280;29153;42.696;23.218;2023-05-08T06:14:34;94662.92;;;16.20;69.59
43553;BME280;29153;42.696;23.218;2023-05-08T06:17:01;94665.33;;;16.42;68.19
43553;BME280;29153;42.696;23.218;2023-05-08T06:19:29;94660.35;;;16.37;68.80
43553;BME280;29153;42.696;23.218;2023-05-08T06:21:56;94661.56;;;16.43;68.05
43553;BME280;29153;42.696;23.218;2023-05-08T06:24:24;94660.18;;;16.34;67.45
43553;BME280;29153;42.696;23.218;2023-05-08T06:26:53;94658.02;;;16.45;69.12
43553;BME280;29153;42.696;23.218;2023-05-08T06:29:21;94668.30;;;16.40;67.98
43553;BME280;29153;42.696;23.218;2023-05-08T06:31:49;94663.07;;;16.35;68.53
43553;BME280;29153;42.696;23.218;2023-05-08T06:34:16;94662.48;;;16.38;70.16
43553;BME280;29153;42.696;23.218;2023-05-08T06:36:44;94664.41;;;16.46;69.85
43553;BME280;29153;42.696;23.218;2023-05-08T06:39:11;94674.56;;;16.58;68.12
43553;BME280;29153;42.696;23.218;2023-05-08T06:41:39;94664.70;;;16.56;69.97
43553;BME280;29153;42.696;23.218;2023-05-08T06:44:06;94666.00;;;16.58;68.95
43553;BME280;29153;42.696;23.218;2023-05-08T06:46:34;94664.66;;;16.78;68.86
43553;BME280;29153;42.696;23.218;2023-05-08T06:49:01;94670.06;;;17.06;67.78
43553;BME280;29153;42.696;23.218;2023-05-08T06:51:29;94685.52;;;17.18;65.67
43553;BME280;29153;42.696;23.218;2023-05-08T06:53:57;94672.95;;;17.07;65.58
43553;BME280;29153;42.696;23.218;2023-05-08T06:56:25;94676.27;;;17.04;65.15
43553;BME280;29153;42.696;23.218;2023-05-08T06:58:52;94677.19;;;17.19;65.58
43553;BME280;29153;42.696;23.218;2023-05-08T07:01:20;94678.28;;;17.18;62.78
43553;BME280;29153;42.696;23.218;2023-05-08T07:03:48;94683.97;;;17.25;65.02
43553;BME280;29153;42.696;23.218;2023-05-08T07:06:15;94682.81;;;17.38;66.08
43553;BME280;29153;42.696;23.218;2023-05-08T07:08:43;94680.48;;;17.45;69.35
43553;BME280;29153;42.696;23.218;2023-05-08T07:11:10;94683.12;;;17.27;66.25
43553;BME280;29153;42.696;23.218;2023-05-08T07:13:38;94675.99;;;17.51;70.16
43553;BME280;29153;42.696;23.218;2023-05-08T07:16:10;94683.64;;;17.55;64.14
43553;BME280;29153;42.696;23.218;2023-05-08T07:18:38;94682.48;;;17.59;63.09
43553;BME280;29153;42.696;23.218;2023-05-08T07:21:05;94676.76;;;17.80;65.33
43553;BME280;29153;42.696;23.218;2023-05-08T07:23:34;94679.44;;;17.97;65.35
43553;BME280;29153;42.696;23.218;2023-05-08T07:26:01;94675.66;;;17.98;64.16
43553;BME280;29153;42.696;23.218;2023-05-08T07:28:29;94685.14;;;17.96;62.97
43553;BME280;29153;42.696;23.218;2023-05-08T07:30:56;94684.59;;;18.13;62.80
43553;BME280;29153;42.696;23.218;2023-05-08T07:33:24;94689.55;;;18.00;60.50
43553;BME280;29153;42.696;23.218;2023-05-08T07:35:52;94691.69;;;18.09;60.84
43553;BME280;29153;42.696;23.218;2023-05-08T07:38:19;94682.77;;;18.11;63.23
43553;BME280;29153;42.696;23.218;2023-05-08T07:40:47;94691.35;;;18.02;60.13
43553;BME280;29153;42.696;23.218;2023-05-08T07:43:16;94638.78;;;17.78;60.18
43553;BME280;29153;42.696;23.218;2023-05-08T07:45:43;94696.10;;;18.23;60.03
43553;BME280;29153;42.696;23.218;2023-05-08T07:48:11;94695.50;;;18.57;59.41
43553;BME280;29153;42.696;23.218;2023-05-08T07:50:39;94694.30;;;18.78;58.42
43553;BME280;29153;42.696;23.218;2023-05-08T07:53:06;94696.47;;;18.85;58.87
43553;BME280;29153;42.696;23.218;2023-05-08T07:55:34;94697.48;;;18.63;59.87
43553;BME280;29153;42.696;23.218;2023-05-08T07:58:01;94699.92;;;19.08;60.47
43553;BME280;29153;42.696;23.218;2023-05-08T08:00:29;94694.80;;;19.62;62.26
43553;BME280;29153;42.696;23.218;2023-05-08T08:02:57;94703.20;;;19.81;58.19
43553;BME280;29153;42.696;23.218;2023-05-08T08:05:24;94702.59;;;20.11;58.46
43553;BME280;29153;42.696;23.218;2023-05-08T08:07:52;94696.50;;;20.23;58.71
43553;BME280;29153;42.696;23.218;2023-05-08T08:10:19;94700.42;;;20.25;56.29
43553;BME280;29153;42.696;23.218;2023-05-08T08:12:47;94696.02;;;20.62;56.74
43553;BME280;29153;42.696;23.218;2023-05-08T08:15:14;94690.31;;;20.76;57.72
43553;BME280;29153;42.696;23.218;2023-05-08T08:17:44;94685.81;;;21.19;57.93
43553;BME280;29153;42.696;23.218;2023-05-08T08:20:13;94692.67;;;21.28;55.67
43553;BME280;29153;42.696;23.218;2023-05-08T08:22:40;94691.84;;;21.04;55.95
43553;BME280;29153;42.696;23.218;2023-05-08T08:25:08;94692.73;;;20.57;55.01
43553;BME280;29153;42.696;23.218;2023-05-08T08:27:35;94685.72;;;20.70;57.17
43553;BME280;29153;42.696;23.218;2023-05-08T08:30:03;94686.18;;;20.84;56.77
43553;BME280;29153;42.696;23.218;2023-05-08T08:32:31;94679.91;;;20.86;54.19
43553;BME280;29153;42.696;23.218;2023-05-08T08:34:58;94676.20;;;20.85;55.43
43553;BME280;29153;42.696;23.218;2023-05-08T08:37:26;94667.10;;;20.77;55.29
43553;BME280;29153;42.696;23.218;2023-05-08T08:39:53;94672.34;;;20.68;55.23
43553;BME280;29153;42.696;23.218;2023-05-08T08:42:21;94671.79;;;20.62;55.69
43553;BME280;29153;42.696;23.218;2023-05-08T08:44:49;94660.58;;;20.66;59.61
43553;BME280;29153;42.696;23.218;2023-05-08T08:47:18;94650.28;;;20.93;59.40
43553;BME280;29153;42.696;23.218;2023-05-08T08:49:48;94649.66;;;21.32;58.81
43553;BME280;29153;42.696;23.218;2023-05-08T08:52:36;94655.39;;;21.37;56.21
43553;BME280;29153;42.696;23.218;2023-05-08T08:55:01;94640.23;;;21.38;57.76
43553;BME280;29153;42.696;23.218;2023-05-08T08:57:35;94641.25;;;21.15;56.81
43553;BME280;29153;42.696;23.218;2023-05-08T09:00:08;94642.79;;;20.92;57.52
43553;BME280;29153;42.696;23.218;2023-05-08T09:02:35;94636.81;;;20.74;57.52
43553;BME280;29153;42.696;23.218;2023-05-08T09:05:03;94635.40;;;20.44;57.34
43553;BME280;29153;42.696;23.218;2023-05-08T09:07:31;94629.25;;;20.29;58.79
43553;BME280;29153;42.696;23.218;2023-05-08T09:09:59;94614.31;;;20.40;58.86
43553;BME280;29153;42.696;23.218;2023-05-08T09:12:27;94611.92;;;20.06;60.05
43553;BME280;29153;42.696;23.218;2023-05-08T09:14:55;94591.91;;;20.21;62.35
43553;BME280;29153;42.696;23.218;2023-05-08T09:17:22;94580.83;;;20.23;61.12
43553;BME280;29153;42.696;23.218;2023-05-08T09:19:50;94573.84;;;20.16;63.20
43553;BME280;29153;42.696;23.218;2023-05-08T09:22:19;94578.66;;;20.43;61.08
43553;BME280;29153;42.696;23.218;2023-05-08T09:24:59;94594.64;;;20.78;59.68
43553;BME280;29153;42.696;23.218;2023-05-08T09:27:30;94607.33;;;20.96;58.05
43553;BME280;29153;42.696;23.218;2023-05-08T09:30:05;94604.66;;;21.20;57.83
43553;BME280;29153;42.696;23.218;2023-05-08T09:32:35;94612.47;;;20.89;58.48
43553;BME280;29153;42.696;23.218;2023-05-08T09:35:04;94615.71;;;20.76;57.95
43553;BME280;29153;42.696;23.218;2023-05-08T09:37:33;94620.31;;;20.70;58.96
43553;BME280;29153;42.696;23.218;2023-05-08T09:40:19;94615.95;;;20.77;58.62
43553;BME280;29153;42.696;23.218;2023-05-08T09:42:48;94623.56;;;20.69;59.06
43553;BME280;29153;42.696;23.218;2023-05-08T09:45:30;94621.77;;;20.73;59.12
43553;BME280;29153;42.696;23.218;2023-05-08T09:47:58;94616.83;;;20.75;59.53
43553;BME280;29153;42.696;23.218;2023-05-08T09:50:25;94616.84;;;21.06;58.54
43553;BME280;29153;42.696;23.218;2023-05-08T09:52:53;94613.30;;;21.20;58.17
43553;BME280;29153;42.696;23.218;2023-05-08T09:55:20;94614.63;;;21.14;58.60
43553;BME280;29153;42.696;23.218;2023-05-08T09:57:53;94618.22;;;21.36;57.01
43553;BME280;29153;42.696;23.218;2023-05-08T10:00:23;94621.25;;;20.92;57.11
43553;BME280;29153;42.696;23.218;2023-05-08T10:02:59;94618.42;;;21.07;57.51
43553;BME280;29153;42.696;23.218;2023-05-08T10:05:32;94602.06;;;21.30;59.30
43553;BME280;29153;42.696;23.218;2023-05-08T10:08:20;94611.91;;;21.50;58.73
43553;BME280;29153;42.696;23.218;2023-05-08T10:10:48;94607.34;;;21.78;59.56
43553;BME280;29153;42.696;23.218;2023-05-08T10:13:16;94617.94;;;21.77;54.92
43553;BME280;29153;42.696;23.218;2023-05-08T10:15:44;94606.78;;;21.79;57.66
43553;BME280;29153;42.696;23.218;2023-05-08T10:18:15;94607.33;;;21.97;56.18
43553;BME280;29153;42.696;23.218;2023-05-08T10:20:45;94604.00;;;22.15;57.72
43553;BME280;29153;42.696;23.218;2023-05-08T10:23:15;94602.23;;;22.07;56.85
43553;BME280;29153;42.696;23.218;2023-05-08T10:25:50;94599.16;;;22.15;57.12
43553;BME280;29153;42.696;23.218;2023-05-08T10:31:03;94591.98;;;21.73;56.57
43553;BME280;29153;42.696;23.218;2023-05-08T10:33:34;94592.60;;;22.22;57.64
43553;BME280;29153;42.696;23.218;2023-05-08T10:36:01;94589.97;;;22.10;56.49
43553;BME280;29153;42.696;23.218;2023-05-08T10:38:30;94589.81;;;22.18;56.72
43553;BME280;29153;42.696;23.218;2023-05-08T10:41:02;94580.75;;;22.11;59.65
43553;BME280;29153;42.696;23.218;2023-05-08T10:43:30;94586.96;;;22.27;56.89
43553;BME280;29153;42.696;23.218;2023-05-08T10:45:56;94592.90;;;22.33;56.30
43553;BME280;29153;42.696;23.218;2023-05-08T10:51:12;94581.31;;;22.32;56.51
43553;BME280;29153;42.696;23.218;2023-05-08T10:53:58;94580.67;;;22.29;58.07
43553;BME280;29153;42.696;23.218;2023-05-08T10:56:27;94579.19;;;22.47;56.06
43553;BME280;29153;42.696;23.218;2023-05-08T10:58:56;94560.34;;;22.41;58.32
43553;BME280;29153;42.696;23.218;2023-05-08T11:01:24;94567.50;;;22.49;54.32
43553;BME280;29153;42.696;23.218;2023-05-08T11:03:52;94569.55;;;22.24;53.95
43553;BME280;29153;42.696;23.218;2023-05-08T11:06:43;94557.81;;;22.11;54.79
43553;BME280;29153;42.696;23.218;2023-05-08T11:09:21;94548.92;;;22.32;55.64
43553;BME280;29153;42.696;23.218;2023-05-08T11:12:22;94545.53;;;22.13;54.97
43553;BME280;29153;42.696;23.218;2023-05-08T11:14:56;94541.41;;;22.25;52.00
43553;BME280;29153;42.696;23.218;2023-05-08T11:17:23;94546.48;;;22.43;50.62
43553;BME280;29153;42.696;23.218;2023-05-08T11:19:56;94535.85;;;22.34;52.51
43553;BME280;29153;42.696;23.218;2023-05-08T11:22:30;94533.63;;;22.67;53.30
43553;BME280;29153;42.696;23.218;2023-05-08T11:25:08;94530.59;;;22.85;50.44
43553;BME280;29153;42.696;23.218;2023-05-08T11:35:43;94518.75;;;22.99;51.22
43553;BME280;29153;42.696;23.218;2023-05-08T11:38:31;94515.61;;;23.22;51.74
43553;BME280;29153;42.696;23.218;2023-05-08T11:41:08;94520.06;;;23.49;51.07
43553;BME280;29153;42.696;23.218;2023-05-08T11:46:14;94494.21;;;23.42;52.73
43553;BME280;29153;42.696;23.218;2023-05-08T11:48:43;94492.76;;;23.64;46.90
43553;BME280;29153;42.696;23.218;2023-05-08T11:51:10;94481.78;;;23.76;48.37
43553;BME280;29153;42.696;23.218;2023-05-08T11:53:39;94484.55;;;23.89;49.38
43553;BME280;29153;42.696;23.218;2023-05-08T11:56:06;94484.48;;;23.76;45.52
43553;BME280;29153;42.696;23.218;2023-05-08T11:58:33;94478.95;;;23.79;48.88
43553;BME280;29153;42.696;23.218;2023-05-08T12:01:02;94473.16;;;23.80;47.83
43553;BME280;29153;42.696;23.218;2023-05-08T12:03:29;94483.01;;;23.69;47.45
43553;BME280;29153;42.696;23.218;2023-05-08T12:05:58;94485.25;;;23.38;48.31
43553;BME280;29153;42.696;23.218;2023-05-08T12:08:26;94481.14;;;23.00;47.96
43553;BME280;29153;42.696;23.218;2023-05-08T12:10:55;94477.38;;;23.04;47.58
43553;BME280;29153;42.696;23.218;2023-05-08T12:13:25;94478.09;;;23.11;50.38
43553;BME280;29153;42.696;23.218;2023-05-08T12:15:57;94480.01;;;23.01;50.92
43553;BME280;29153;42.696;23.218;2023-05-08T12:18:27;94479.15;;;22.97;49.66
43553;BME280;29153;42.696;23.218;2023-05-08T12:20:57;94473.94;;;22.88;48.13
43553;BME280;29153;42.696;23.218;2023-05-08T12:23:32;94468.12;;;22.96;50.44
43553;BME280;29153;42.696;23.218;2023-05-08T12:25:59;94469.97;;;22.60;50.49
43553;BME280;29153;42.696;23.218;2023-05-08T12:28:28;94472.03;;;22.73;49.76
43553;BME280;29153;42.696;23.218;2023-05-08T12:30:57;94474.25;;;22.77;48.68
43553;BME280;29153;42.696;23.218;2023-05-08T12:33:25;94473.86;;;22.85;48.11
43553;BME280;29153;42.696;23.218;2023-05-08T12:35:57;94464.78;;;22.93;49.55
43553;BME280;29153;42.696;23.218;2023-05-08T12:38:28;94463.94;;;23.08;49.31
43553;BME280;29153;42.696;23.218;2023-05-08T12:40:56;94473.08;;;22.94;48.13
43553;BME280;29153;42.696;23.218;2023-05-08T12:43:35;94465.52;;;22.68;47.08
43553;BME280;29153;42.696;23.218;2023-05-08T12:46:00;94468.44;;;22.28;48.11
43553;BME280;29153;42.696;23.218;2023-05-08T12:48:28;94460.63;;;22.17;49.52
43553;BME280;29153;42.696;23.218;2023-05-08T12:51:01;94461.80;;;22.10;51.42
43553;BME280;29153;42.696;23.218;2023-05-08T12:53:30;94463.71;;;22.09;48.21
43553;BME280;29153;42.696;23.218;2023-05-08T12:56:00;94460.05;;;22.02;48.15
43553;BME280;29153;42.696;23.218;2023-05-08T12:58:31;94453.77;;;22.19;50.81
43553;BME280;29153;42.696;23.218;2023-05-08T13:01:10;94453.31;;;22.17;48.22
43553;BME280;29153;42.696;23.218;2023-05-08T13:03:39;94453.28;;;22.23;51.18
43553;BME280;29153;42.696;23.218;2023-05-08T13:06:06;94451.56;;;22.56;49.34
43553;BME280;29153;42.696;23.218;2023-05-08T13:08:37;94450.66;;;22.68;48.64
43553;BME280;29153;42.696;23.218;2023-05-08T13:11:05;94449.16;;;22.61;49.27
43553;BME280;29153;42.696;23.218;2023-05-08T13:13:34;94454.74;;;22.52;49.83
43553;BME280;29153;42.696;23.218;2023-05-08T13:16:04;94451.21;;;22.42;51.87
43553;BME280;29153;42.696;23.218;2023-05-08T13:18:33;94456.38;;;22.16;51.59
43553;BME280;29153;42.696;23.218;2023-05-08T13:21:03;94451.71;;;22.07;52.35
43553;BME280;29153;42.696;23.218;2023-05-08T13:23:31;94455.67;;;21.75;53.49
43553;BME280;29153;42.696;23.218;2023-05-08T13:25:58;94460.02;;;21.58;54.52
43553;BME280;29153;42.696;23.218;2023-05-08T13:28:26;94469.66;;;21.38;54.67
43553;BME280;29153;42.696;23.218;2023-05-08T13:30:54;94473.75;;;21.19;55.48
43553;BME280;29153;42.696;23.218;2023-05-08T13:33:21;94480.61;;;20.99;57.83
43553;BME280;29153;42.696;23.218;2023-05-08T13:35:49;94474.11;;;20.94;57.62
43553;BME280;29153;42.696;23.218;2023-05-08T13:38:16;94480.16;;;21.09;59.24
43553;BME280;29153;42.696;23.218;2023-05-08T13:40:45;94481.63;;;20.94;57.21